Time;durP1;ratioP1;P1;durP2;ratioP2;P2;SDS_P1;SDS_P2;PMS_P1;PMS_P2;Temp;Humidity;BMP_temperature;BMP_pressure;BME280_temperature;BME280_humidity;BME280_pressure;Samples;Min_cycle;Max_cycle;Signal;HPM_P1;HPM_P2
2022/07/07 00:01:48;;;;;;;5.93;3.42;;;589.40;2432.00;;;;;;6245959;23;20004;-86
2022/07/07 00:04:14;;;;;;;4.72;3.78;;;589.30;2432.00;;;;;;6245560;23;20000;-84
2022/07/07 00:06:40;;;;;;;5.28;3.10;;;589.40;2432.00;;;;;;6245569;23;20035;-85
2022/07/07 00:09:06;;;;;;;5.53;3.80;;;589.40;2432.00;;;;;;6245823;23;20004;-85
2022/07/07 00:11:32;;;;;;;5.85;3.85;;;589.30;2432.00;;;;;;6244991;23;20016;-85
2022/07/07 00:13:58;;;;;;;7.82;3.83;;;589.30;2432.00;;;;;;6245979;23;20083;-84
2022/07/07 00:16:24;;;;;;;5.35;3.42;;;589.40;2432.00;;;;;;6246073;23;20032;-84
2022/07/07 00:18:50;;;;;;;4.75;3.42;;;589.30;2432.00;;;;;;6245722;23;20454;-82
2022/07/07 00:21:16;;;;;;;4.97;3.63;;;589.10;2432.00;;;;;;6245962;23;20039;-84
2022/07/07 00:23:42;;;;;;;7.05;3.15;;;589.10;2432.00;;;;;;6245723;23;20007;-85
2022/07/07 00:26:08;;;;;;;5.38;3.40;;;589.10;2432.00;;;;;;6245257;23;20008;-83
2022/07/07 00:28:34;;;;;;;5.88;3.30;;;589.10;2432.00;;;;;;6245159;23;20484;-83
2022/07/07 00:31:01;;;;;;;4.45;3.45;;;589.10;2432.00;;;;;;6245409;23;20039;-82
2022/07/07 00:33:27;;;;;;;4.88;3.33;;;589.00;2432.00;;;;;;6248914;23;20007;-82
2022/07/07 00:35:53;;;;;;;5.28;3.25;;;589.00;2432.00;;;;;;6258640;23;19996;-82
2022/07/07 00:38:19;;;;;;;4.30;3.08;;;589.00;2432.00;;;;;;6255620;23;20079;-85
2022/07/07 00:40:53;;;;;;;4.88;3.20;;;589.00;2432.00;;;;;;6246523;22;20024;-85
2022/07/07 00:43:19;;;;;;;6.30;3.22;;;589.00;2432.00;;;;;;6245420;23;20004;-87
2022/07/07 00:45:49;;;;;;;5.07;3.53;;;589.00;2432.00;;;;;;6245159;23;20011;-86
2022/07/07 00:48:18;;;;;;;4.78;2.88;;;589.00;2432.00;;;;;;6245127;23;20066;-85
2022/07/07 00:50:46;;;;;;;5.28;3.50;;;589.00;2432.00;;;;;;6245438;23;20442;-83
2022/07/07 00:53:13;;;;;;;4.60;3.45;;;589.00;2432.00;;;;;;6245024;23;20004;-82
2022/07/07 00:55:39;;;;;;;4.80;3.13;;;589.00;2432.00;;;;;;6247088;23;20016;-85
2022/07/07 00:58:06;;;;;;;6.85;3.90;;;589.00;2432.00;;;;;;6247012;23;20040;-85
2022/07/07 01:00:32;;;;;;;6.00;3.20;;;589.00;2432.00;;;;;;6246847;23;20001;-83
2022/07/07 01:02:58;;;;;;;4.43;3.38;;;589.00;2432.00;;;;;;6246789;23;20306;-84
2022/07/07 01:05:26;;;;;;;5.75;3.60;;;588.90;2432.00;;;;;;6247021;23;20079;-84
2022/07/07 01:07:52;;;;;;;5.95;4.45;;;564.10;2432.00;;;;;;6246364;23;20091;-83
2022/07/07 01:10:18;;;;;;;7.13;4.65;;;563.60;2432.00;;;;;;6246230;23;20458;-83
2022/07/07 01:12:44;;;;;;;7.63;4.40;;;564.10;2432.00;;;;;;6246761;23;20424;-82
2022/07/07 01:15:12;;;;;;;6.75;5.00;;;563.60;2432.00;;;;;;6246102;23;19996;-83
2022/07/07 01:17:39;;;;;;;8.93;4.47;;;563.50;2432.00;;;;;;6246777;23;20011;-82
2022/07/07 01:20:07;;;;;;;6.85;4.72;;;563.70;2432.00;;;;;;6246685;23;20422;-83
2022/07/07 01:22:35;;;;;;;8.07;4.78;;;563.60;2432.00;;;;;;6246211;23;20000;-83
2022/07/07 01:25:01;;;;;;;7.25;4.22;;;563.50;2432.00;;;;;;6246751;23;20000;-81
2022/07/07 01:27:27;;;;;;;6.50;4.80;;;563.40;2432.00;;;;;;6246484;23;20015;-82
2022/07/07 01:29:55;;;;;;;7.47;4.65;;;563.40;2432.00;;;;;;6246180;23;20087;-82
2022/07/07 01:32:25;;;;;;;6.65;4.40;;;563.40;2432.00;;;;;;6246274;23;20003;-83
2022/07/07 01:34:51;;;;;;;5.93;4.47;;;;;;;;;;6246121;23;20028;-82
2022/07/07 01:37:18;;;;;;;6.25;3.97;;;;;;;;;;6246713;23;20004;-81
2022/07/07 01:39:44;;;;;;;8.18;4.35;;;563.60;2432.00;;;;;;6246455;23;20023;-82
2022/07/07 01:42:11;;;;;;;5.55;3.90;;;563.40;2432.00;;;;;;6246193;23;20000;-83
2022/07/07 01:44:39;;;;;;;6.97;4.68;;;;;;;;;;6246506;23;20024;-84
2022/07/07 01:47:06;;;;;;;7.68;4.45;;;;;;;;;;6246181;23;20083;-81
2022/07/07 01:49:32;;;;;;;7.07;4.88;;;;;;;;;;6246147;23;20007;-83
2022/07/07 01:51:59;;;;;;;6.90;4.82;;;;;;;;;;6246304;23;20005;-83
2022/07/07 01:54:28;;;;;;;8.93;5.05;;;;;;;;;;6246909;23;20015;-81
2022/07/07 01:56:55;;;;;;;8.48;4.38;;;;;;;;;;6260666;23;20051;-79
2022/07/07 01:59:21;;;;;;;7.45;4.40;;;;;;;;;;6260242;23;20058;-79
2022/07/07 02:01:47;;;;;;;7.35;4.82;;;;;;;;;;6255415;23;20001;-82
2022/07/07 02:04:13;;;;;;;10.80;4.88;;;;;;;;;;6246144;23;20000;-83
2022/07/07 02:06:40;;;;;;;7.63;4.70;;;;;;;;;;6247764;22;20481;-84
2022/07/07 02:09:07;;;;;;;10.30;4.43;;;;;;;;;;6246101;23;20035;-81
2022/07/07 02:11:33;;;;;;;7.63;3.65;;;;;;;;;;6245173;23;20016;-84
2022/07/07 02:13:59;;;;;;;4.30;3.20;;;;;;;;;;6246076;23;20026;-82
2022/07/07 02:16:26;;;;;;;5.03;3.38;;;;;;;;;;6246044;23;20381;-81
2022/07/07 02:18:53;;;;;;;4.93;3.50;;;;;;;;;;6245916;23;20027;-83
2022/07/07 02:21:20;;;;;;;6.47;3.92;;;;;;;;;;6246002;23;20004;-83
2022/07/07 02:23:47;;;;;;;6.00;4.35;;;;;;;;;;6245724;23;20447;-81
2022/07/07 02:26:14;;;;;;;6.50;3.53;;;;;;;;;;6245937;23;20361;-82
2022/07/07 02:28:41;;;;;;;5.57;4.10;;;;;;;;;;6245928;23;20008;-81
2022/07/07 02:31:08;;;;;;;6.72;4.15;;;;;;;;;;6245705;23;20008;-82
2022/07/07 02:33:34;;;;;;;8.57;4.45;;;;;;;;;;6245779;23;20051;-82
2022/07/07 02:36:00;;;;;;;7.72;3.78;;;;;;;;;;6245975;23;20322;-83
2022/07/07 02:38:26;;;;;;;5.35;3.90;;;;;;;;;;6245655;23;20008;-83
2022/07/07 02:40:53;;;;;;;8.52;4.75;;;;;;;;;;6245990;23;19996;-81
2022/07/07 02:43:19;;;;;;;6.65;4.03;;;;;;;;;;6245879;23;20325;-83
2022/07/07 02:45:46;;;;;;;6.03;4.00;;;;;;;;;;6245660;23;20008;-83
2022/07/07 02:48:13;;;;;;;5.07;3.55;;;;;;;;;;6247183;23;20092;-82
2022/07/07 02:50:40;;;;;;;7.40;3.60;;;;;;;;;;6245916;23;20091;-84
2022/07/07 02:53:07;;;;;;;7.60;4.00;;;;;;;;;;6245640;23;19996;-81
2022/07/07 02:55:33;;;;;;;8.57;5.30;;;;;;;;;;6245799;23;20004;-85
2022/07/07 02:58:00;;;;;;;5.38;4.13;;;;;;;;;;6245587;23;20015;-82
2022/07/07 03:00:27;;;;;;;6.45;4.05;;;;;;;;;;6246368;23;20000;-82
2022/07/07 03:02:53;;;;;;;5.80;4.05;;;;;;;;;;6245745;23;19997;-83
2022/07/07 03:05:20;;;;;;;8.10;4.50;;;;;;;;;;6245629;23;20075;-82
2022/07/07 03:07:46;;;;;;;9.93;5.80;;;;;;;;;;6245152;23;20004;-82
2022/07/07 03:10:12;;;;;;;9.13;5.53;;;538.30;2406.40;;;;;;6245568;23;20077;-83
2022/07/07 03:12:39;;;;;;;9.23;6.03;;;;;;;;;;6245628;23;20136;-82
2022/07/07 03:15:06;;;;;;;8.77;5.57;;;;;;;;;;6245151;23;20000;-82
2022/07/07 03:17:32;;;;;;;7.65;5.25;;;;;;;;;;6245315;23;20007;-82
2022/07/07 03:19:58;;;;;;;12.13;5.95;;;;;;;;;;6245282;23;20063;-82
2022/07/07 03:22:24;;;;;;;8.10;5.65;;;;;;;;;;6247039;23;20410;-82
2022/07/07 03:24:50;;;;;;;8.10;5.63;;;538.10;2406.40;;;;;;6245431;23;20007;-84
2022/07/07 03:27:16;;;;;;;9.57;5.75;;;538.00;2406.40;;;;;;6244787;23;20005;-84
2022/07/07 03:29:42;;;;;;;7.95;5.72;;;512.90;2380.80;;;;;;6245256;23;20028;-83
2022/07/07 03:32:08;;;;;;;8.02;5.65;;;512.80;2380.80;;;;;;6245446;23;20020;-81
2022/07/07 03:34:34;;;;;;;8.02;5.53;;;512.90;2380.80;;;;;;6245071;23;20425;-83
2022/07/07 03:36:59;;;;;;;11.25;5.93;;;512.70;2380.80;;;;;;6245420;23;20051;-82
2022/07/07 03:39:25;;;;;;;10.55;6.43;;;;;;;;;;6245055;23;20426;-83
2022/07/07 03:41:51;;;;;;;9.82;6.10;;;512.70;2380.80;;;;;;6245791;23;20053;-82
2022/07/07 03:44:17;;;;;;;11.55;6.65;;;512.40;2380.80;;;;;;6245583;23;20383;-82
2022/07/07 03:46:44;;;;;;;13.30;6.13;;;512.80;2380.80;;;;;;6247678;23;20000;-81
2022/07/07 03:49:10;;;;;;;10.75;5.20;;;512.90;2380.80;;;;;;6264249;23;20008;-80
2022/07/07 03:51:36;;;;;;;9.77;5.70;;;537.70;2406.40;;;;;;6262076;23;20008;-83
2022/07/07 03:54:02;;;;;;;10.07;5.68;;;537.70;2406.40;;;;;;6245462;23;20004;-83
2022/07/07 03:56:28;;;;;;;8.07;5.43;;;537.60;2406.40;;;;;;6244989;23;20032;-83
2022/07/07 03:58:54;;;;;;;10.27;5.97;;;512.90;2380.80;;;;;;6245552;23;20011;-82
2022/07/07 04:01:20;;;;;;;9.77;4.75;;;512.90;2380.80;;;;;;6245212;23;20299;-83
2022/07/07 04:03:46;;;;;;;9.60;5.63;;;537.70;2406.40;;;;;;6245001;23;20008;-81
2022/07/07 04:06:12;;;;;;;8.50;5.35;;;512.90;2380.80;;;;;;6245308;23;20091;-83
2022/07/07 04:08:37;;;;;;;7.20;5.00;;;512.70;2380.80;;;;;;6245024;23;20061;-83
2022/07/07 04:11:03;;;;;;;8.52;4.65;;;512.90;2380.80;;;;;;6244728;23;20055;-84
2022/07/07 04:13:29;;;;;;;7.57;5.65;;;537.60;2406.40;;;;;;6245488;23;19996;-84
2022/07/07 04:15:58;;;;;;;9.20;4.75;;;537.80;2406.40;;;;;;6245284;23;20000;-84
2022/07/07 04:18:24;;;;;;;6.63;4.43;;;537.90;2406.40;;;;;;6245634;23;20008;-85
2022/07/07 04:20:51;;;;;;;7.57;4.72;;;537.70;2406.40;;;;;;6245598;23;20007;-85
2022/07/07 04:23:16;;;;;;;6.03;4.45;;;537.60;2406.40;;;;;;6245299;23;20000;-86
2022/07/07 04:25:42;;;;;;;7.05;4.68;;;512.70;2380.80;;;;;;6245537;23;20330;-86
2022/07/07 04:28:08;;;;;;;7.38;4.82;;;512.80;2380.80;;;;;;6245992;23;20008;-83
2022/07/07 04:30:34;;;;;;;6.22;4.70;;;512.90;2380.80;;;;;;6247028;23;19996;-84
2022/07/07 04:33:00;;;;;;;10.55;4.80;;;537.60;2406.40;;;;;;6247066;23;20035;-84
2022/07/07 04:35:26;;;;;;;8.85;5.32;;;537.60;2406.40;;;;;;6247396;23;20000;-85
2022/07/07 04:37:52;;;;;;;9.85;5.22;;;537.60;2406.40;;;;;;6246770;23;20027;-86
2022/07/07 04:40:17;;;;;;;10.68;5.43;;;537.80;2406.40;;;;;;6247708;23;20426;-85
2022/07/07 04:42:43;;;;;;;10.93;5.38;;;538.00;2406.40;;;;;;6247276;23;20004;-84
2022/07/07 04:45:10;;;;;;;6.57;4.90;;;538.10;2406.40;;;;;;6247032;23;20485;-83
2022/07/07 04:47:42;;;;;;;8.30;4.60;;;538.20;2406.40;;;;;;6247088;23;20009;-85
2022/07/07 04:50:10;;;;;;;10.32;4.47;;;538.30;2406.40;;;;;;6247281;23;20009;-85
2022/07/07 04:52:36;;;;;;;11.30;4.85;;;538.40;2406.40;;;;;;6247072;23;20008;-84
2022/07/07 04:55:03;;;;;;;11.80;4.32;;;538.50;2406.40;;;;;;6247154;23;20031;-84
2022/07/07 04:57:29;;;;;;;10.13;4.40;;;538.50;2406.40;;;;;;6246928;23;20019;-86
2022/07/07 04:59:54;;;;;;;8.38;4.45;;;563.30;2432.00;;;;;;6246827;23;20004;-86
2022/07/07 05:02:20;;;;;;;6.60;4.35;;;563.40;2432.00;;;;;;6247119;23;20058;-84
2022/07/07 05:04:46;;;;;;;6.45;4.38;;;563.50;2432.00;;;;;;6246649;23;20274;-83
2022/07/07 05:07:12;;;;;;;12.07;6.35;;;563.50;2432.00;;;;;;6246805;23;20007;-85
2022/07/07 05:09:38;;;;;;;6.05;4.32;;;563.70;2432.00;;;;;;6246848;23;20000;-82
2022/07/07 05:12:04;;;;;;;9.48;5.50;;;563.80;2432.00;;;;;;6246493;23;20047;-84
2022/07/07 05:14:30;;;;;;;9.20;5.15;;;563.90;2432.00;;;;;;6246649;23;20004;-83
2022/07/07 05:16:56;;;;;;;7.78;4.57;;;563.90;2432.00;;;;;;6247109;23;20022;-85
2022/07/07 05:19:24;;;;;;;7.50;3.92;;;564.00;2432.00;;;;;;6246433;23;20011;-85
2022/07/07 05:21:50;;;;;;;7.15;4.05;;;564.10;2432.00;;;;;;6246919;23;20026;-84
2022/07/07 05:24:16;;;;;;;11.18;4.30;;;564.10;2432.00;;;;;;6246941;23;20422;-82
2022/07/07 05:26:42;;;;;;;7.45;4.18;;;564.10;2432.00;;;;;;6246401;23;20373;-83
2022/07/07 05:29:07;;;;;;;6.00;3.42;;;588.90;2432.00;;;;;;6246911;23;20051;-83
2022/07/07 05:31:33;;;;;;;7.40;3.22;;;588.80;2432.00;;;;;;6246567;23;20396;-83
2022/07/07 05:33:59;;;;;;;7.13;3.80;;;588.90;2432.00;;;;;;6246387;23;20105;-85
2022/07/07 05:36:25;;;;;;;4.75;3.40;;;589.00;2432.00;;;;;;6246936;23;20030;-86
2022/07/07 05:38:51;;;;;;;6.10;3.75;;;589.10;2432.00;;;;;;6246740;23;20011;-86
2022/07/07 05:41:17;;;;;;;7.20;3.35;;;589.30;2432.00;;;;;;6245920;23;20006;-85
2022/07/07 05:43:44;;;;;;;7.90;4.00;;;589.30;2432.00;;;;;;6246598;23;20422;-82
2022/07/07 05:46:11;;;;;;;6.38;3.72;;;589.60;2432.00;;;;;;6248008;22;19997;-84
2022/07/07 05:48:37;;;;;;;6.15;3.55;;;589.50;2432.00;;;;;;6246012;23;20019;-83
2022/07/07 05:51:04;;;;;;;4.55;3.70;;;;;;;;;;6246682;23;20075;-84
2022/07/07 05:53:30;;;;;;;8.20;4.70;;;614.40;2432.00;;;;;;6246633;23;20000;-84
2022/07/07 05:55:58;;;;;;;5.60;3.50;;;589.70;2432.00;;;;;;6246444;23;20065;-83
2022/07/07 05:58:24;;;;;;;6.43;3.80;;;589.70;2432.00;;;;;;6246283;23;20091;-85
2022/07/07 06:00:50;;;;;;;6.40;3.60;;;589.70;2432.00;;;;;;6246024;23;20043;-86
2022/07/07 06:03:16;;;;;;;7.82;3.50;;;614.40;2432.00;;;;;;6246829;23;20000;-87
2022/07/07 06:05:43;;;;;;;6.45;3.53;;;614.40;2432.00;;;;;;6246672;23;20311;-88
2022/07/07 06:08:09;;;;;;;9.55;4.43;;;614.40;2432.00;;;;;;6245988;23;20456;-87
2022/07/07 06:10:36;;;;;;;8.52;4.10;;;614.60;2432.00;;;;;;6245735;23;20016;-86
2022/07/07 06:13:02;;;;;;;4.38;3.20;;;614.70;2432.00;;;;;;6246388;23;20034;-86
2022/07/07 06:15:32;;;;;;;5.07;3.00;;;614.70;2432.00;;;;;;6246143;23;20011;-87
2022/07/07 06:18:00;;;;;;;6.57;3.55;;;614.80;2432.00;;;;;;6246327;23;20000;-87
2022/07/07 06:20:26;;;;;;;5.63;3.80;;;614.80;2432.00;;;;;;6245958;23;20008;-88
2022/07/07 06:22:52;;;;;;;4.25;3.13;;;614.90;2432.00;;;;;;6245804;23;20008;-86
2022/07/07 06:25:20;;;;;;;7.85;4.07;;;615.00;2432.00;;;;;;6246104;23;20010;-86
2022/07/07 06:27:46;;;;;;;9.63;4.93;;;615.20;2432.00;;;;;;6246138;23;20008;-87
2022/07/07 06:30:12;;;;;;;6.65;3.97;;;615.30;2432.00;;;;;;6245746;23;20004;-86
2022/07/07 06:32:38;;;;;;;12.10;4.80;;;615.30;2432.00;;;;;;6246116;23;19997;-86
2022/07/07 06:35:05;;;;;;;4.30;3.47;;;640.00;2432.00;;;;;;6246345;23;20007;-90
2022/07/07 06:37:31;;;;;;;6.30;3.97;;;640.00;2432.00;;;;;;6245777;23;20426;-86
2022/07/07 06:39:57;;;;;;;4.82;3.30;;;640.10;2432.00;;;;;;6245362;23;20012;-87
2022/07/07 06:42:23;;;;;;;4.88;3.53;;;640.10;2432.00;;;;;;6245446;23;20000;-85
2022/07/07 06:44:49;;;;;;;5.80;3.90;;;640.20;2432.00;;;;;;6244280;23;20030;-85
2022/07/07 06:47:15;;;;;;;6.68;3.50;;;640.20;2432.00;;;;;;6245549;23;20058;-85
2022/07/07 06:49:40;;;;;;;4.70;3.00;;;640.30;2432.00;;;;;;6245836;23;20012;-85
2022/07/07 06:52:07;;;;;;;5.93;3.13;;;640.50;2432.00;;;;;;6245560;23;20007;-84
2022/07/07 06:54:32;;;;;;;6.07;3.88;;;640.60;2432.00;;;;;;6246811;23;20488;-87
2022/07/07 06:56:58;;;;;;;5.95;3.20;;;640.60;2432.00;;;;;;6245908;23;20004;-88
2022/07/07 06:59:24;;;;;;;4.85;3.00;;;640.70;2432.00;;;;;;6257260;23;20000;-85
2022/07/07 07:01:50;;;;;;;7.03;3.28;;;640.80;2432.00;;;;;;6268054;23;20005;-86
2022/07/07 07:04:16;;;;;;;6.55;4.38;;;665.60;2432.00;;;;;;6251698;23;19996;-85
2022/07/07 07:06:43;;;;;;;4.20;2.80;;;665.80;2432.00;;;;;;6245789;23;20070;-85
2022/07/07 07:09:10;;;;;;;8.77;3.38;;;691.90;2432.00;;;;;;6245426;23;20018;-86
2022/07/07 07:11:36;;;;;;;6.80;3.00;;;666.30;2432.00;;;;;;6244739;23;20016;-86
2022/07/07 07:14:03;;;;;;;7.22;3.40;;;666.00;2432.00;;;;;;6245778;23;20387;-86
2022/07/07 07:16:30;;;;;;;10.68;4.18;;;666.20;2432.00;;;;;;6244916;23;20012;-86
2022/07/07 07:18:56;;;;;;;5.05;3.63;;;666.10;2432.00;;;;;;6245622;23;20483;-86
2022/07/07 07:21:23;;;;;;;4.45;2.97;;;666.20;2406.40;;;;;;6245960;23;20004;-87
2022/07/07 07:23:48;;;;;;;4.05;2.53;;;665.90;2380.80;;;;;;6244610;23;20008;-84
2022/07/07 07:26:14;;;;;;;4.07;2.03;;;691.20;2355.20;;;;;;6244914;23;20010;-84
2022/07/07 07:28:40;;;;;;;3.85;2.40;;;666.50;2329.60;;;;;;6245552;23;20086;-86
2022/07/07 07:31:06;;;;;;;7.18;3.25;;;666.30;2329.60;;;;;;6245451;23;20000;-84
2022/07/07 07:33:35;;;;;;;6.88;2.88;;;666.30;2329.60;;;;;;6245148;23;20000;-85
2022/07/07 07:36:02;;;;;;;5.05;2.85;;;666.30;2329.60;;;;;;6245052;23;20008;-85
2022/07/07 07:38:28;;;;;;;5.50;2.50;;;666.30;2304.00;;;;;;6245767;23;20004;-87
2022/07/07 07:40:54;;;;;;;6.90;2.53;;;666.30;2304.00;;;;;;6245209;23;20036;-86
2022/07/07 07:43:20;;;;;;;3.70;2.25;;;666.50;2278.40;;;;;;6245722;23;20008;-85
2022/07/07 07:45:46;;;;;;;3.53;2.20;;;640.70;2278.40;;;;;;6245552;23;20055;-89
2022/07/07 07:48:13;;;;;;;3.53;2.35;;;666.20;2304.00;;;;;;6249362;23;20031;-88
2022/07/07 07:50:39;;;;;;;5.80;2.38;;;666.50;2304.00;;;;;;6248563;23;20010;-86
2022/07/07 07:53:06;;;;;;;4.95;2.13;;;666.50;2304.00;;;;;;6247166;23;20011;-87
2022/07/07 07:55:35;;;;;;;7.95;2.40;;;666.50;2278.40;;;;;;6245671;23;20426;-88
2022/07/07 07:58:01;;;;;;;5.60;2.45;;;691.30;2278.40;;;;;;6245702;23;20008;-87
2022/07/07 08:00:28;;;;;;;4.32;2.20;;;691.30;2278.40;;;;;;6245093;23;20081;-87
2022/07/07 08:02:54;;;;;;;5.70;2.40;;;691.40;2252.80;;;;;;6246215;23;20004;-88
2022/07/07 08:05:20;;;;;;;4.82;2.30;;;;;;;;;;6248080;23;20091;-87
2022/07/07 08:07:55;;;;;;;4.70;2.53;;;;;;;;;;6247113;23;20061;-88
2022/07/07 08:10:22;;;;;;;4.75;2.33;;;;;;;;;;6247378;23;20012;-84
2022/07/07 08:12:49;;;;;;;3.78;2.30;;;;;;;;;;6247705;23;20507;-87
2022/07/07 08:15:15;;;;;;;6.47;2.88;;;692.10;2176.00;;;;;;6247550;23;20063;-86
2022/07/07 08:17:42;;;;;;;6.43;3.72;;;692.10;2176.00;;;;;;6247715;23;20083;-87
2022/07/07 08:20:09;;;;;;;5.85;2.30;;;692.00;2150.40;;;;;;6247709;23;20011;-86
2022/07/07 08:22:35;;;;;;;4.05;2.60;;;716.90;2150.40;;;;;;6246960;23;20011;-86
2022/07/07 08:25:01;;;;;;;5.22;2.85;;;717.10;2124.80;;;;;;6247678;23;20004;-83
2022/07/07 08:27:30;;;;;;;3.47;2.20;;;717.30;2073.60;;;;;;6247255;23;20007;-87
2022/07/07 08:29:56;;;;;;;6.25;2.83;;;717.30;2073.60;;;;;;6246478;23;20000;-83
2022/07/07 08:32:22;;;;;;;4.80;2.78;;;717.50;2073.60;;;;;;6246701;23;20031;-85
2022/07/07 08:34:48;;;;;;;5.72;3.47;;;717.70;2048.00;;;;;;6246805;23;20000;-85
2022/07/07 08:37:14;;;;;;;7.15;2.55;;;742.40;2099.20;;;;;;6246526;23;20010;-82
2022/07/07 08:39:40;;;;;;;5.50;3.50;;;742.60;2048.00;;;;;;6246452;23;20001;-79
2022/07/07 08:42:06;;;;;;;4.55;3.03;;;742.40;2048.00;;;;;;6246080;23;20001;-82
2022/07/07 08:44:32;;;;;;;6.85;3.22;;;742.60;2022.40;;;;;;6247044;23;20004;-82
2022/07/07 08:46:59;;;;;;;8.68;7.78;;;742.90;1996.80;;;;;;6247198;23;20078;-82
2022/07/07 08:49:27;;;;;;;6.05;3.58;;;743.00;1945.60;;;;;;6246747;23;20019;-82
2022/07/07 08:51:54;;;;;;;9.23;4.95;;;743.30;1920.00;;;;;;6246990;23;19996;-86
2022/07/07 08:54:20;;;;;;;8.98;5.05;;;743.20;1920.00;;;;;;6245745;23;20330;-82
2022/07/07 08:56:46;;;;;;;5.10;2.95;;;743.10;1945.60;;;;;;6246493;23;20004;-82
2022/07/07 08:59:14;;;;;;;5.22;2.70;;;743.30;1971.20;;;;;;6246192;23;20004;-87
2022/07/07 09:01:40;;;;;;;4.85;3.65;;;743.20;1971.20;;;;;;6247184;23;20012;-88
2022/07/07 09:04:06;;;;;;;5.80;2.80;;;768.20;1945.60;;;;;;6246719;23;20438;-85
2022/07/07 09:06:33;;;;;;;7.22;2.50;;;768.00;1945.60;;;;;;6246593;23;20015;-84
2022/07/07 09:09:01;;;;;;;5.22;3.00;;;768.10;1971.20;;;;;;6246471;23;20011;-86
2022/07/07 09:11:33;;;;;;;4.15;2.72;;;743.30;1920.00;;;;;;6247250;22;20016;-82
2022/07/07 09:14:16;;;;;;;4.38;2.50;;;743.30;1971.20;;;;;;6245895;23;20032;-82
2022/07/07 09:16:42;;;;;;;8.38;3.95;;;768.20;1920.00;;;;;;6246159;23;20000;-81
2022/07/07 09:19:28;;;;;;;10.38;6.25;;;768.30;1868.80;;;;;;6246280;23;20001;-87
2022/07/07 09:21:54;;;;;;;5.43;3.15;;;768.70;1868.80;;;;;;6245393;23;20381;-85
2022/07/07 09:24:20;;;;;;;6.15;4.78;;;768.60;1843.20;;;;;;6246215;23;20054;-85
2022/07/07 09:26:50;;;;;;;6.10;2.38;;;768.70;1843.20;;;;;;6246044;23;20031;-82
2022/07/07 09:29:22;;;;;;;5.10;2.88;;;768.60;1817.60;;;;;;6246299;23;20018;-83
2022/07/07 09:32:30;;;;;;;11.52;8.70;;;768.70;1817.60;;;;;;6247049;23;20058;-87
2022/07/07 09:38:22;;;;;;;5.63;2.40;;;768.80;1843.20;;;;;;6215806;23;20042;-85
2022/07/07 09:41:12;;;;;;;3.40;2.20;;;768.90;1817.60;;;;;;6189659;23;20026;-84
2022/07/07 09:43:48;;;;;;;4.63;2.25;;;793.60;1792.00;;;;;;6189663;23;20009;-85
2022/07/07 09:46:22;;;;;;;5.15;3.53;;;793.90;1766.40;;;;;;6189630;23;20000;-87
2022/07/07 09:48:49;;;;;;;3.90;2.85;;;794.10;1766.40;;;;;;6189370;23;20012;-86
2022/07/07 09:51:26;;;;;;;4.78;2.33;;;794.00;1740.80;;;;;;6190413;23;20001;-88
2022/07/07 09:53:52;;;;;;;4.00;2.38;;;794.20;1740.80;;;;;;6190151;23;20011;-87
2022/07/07 09:56:21;;;;;;;5.38;2.00;;;794.30;1740.80;;;;;;6188197;23;20416;-87
2022/07/07 09:58:47;;;;;;;3.55;2.00;;;794.30;1740.80;;;;;;6189553;23;20004;-85
2022/07/07 10:01:13;;;;;;;4.93;2.40;;;794.30;1715.20;;;;;;6189706;23;20555;-86
2022/07/07 10:03:41;;;;;;;4.97;2.10;;;794.40;1715.20;;;;;;6189747;23;20024;-87
2022/07/07 10:06:08;;;;;;;3.58;2.15;;;819.20;1715.20;;;;;;6236693;23;20011;-86
2022/07/07 10:08:35;;;;;;;4.75;2.20;;;819.30;1715.20;;;;;;6258828;23;20361;-83
2022/07/07 10:11:05;;;;;;;6.63;2.53;;;819.40;1715.20;;;;;;6245444;23;20019;-85
2022/07/07 10:13:32;;;;;;;3.40;2.00;;;819.20;1715.20;;;;;;6245896;23;20104;-84
2022/07/07 10:15:58;;;;;;;3.10;2.00;;;819.20;1638.40;;;;;;6245227;23;20426;-88
2022/07/07 10:18:24;;;;;;;5.15;2.40;;;794.20;1689.60;;;;;;6245716;23;20035;-85
2022/07/07 10:20:50;;;;;;;7.95;2.85;;;793.70;1740.80;;;;;;6245979;23;20079;-85
2022/07/07 10:23:16;;;;;;;4.57;2.35;;;768.90;1740.80;;;;;;6245213;23;20354;-86
2022/07/07 10:25:58;;;;;;;5.65;2.20;;;793.70;1715.20;;;;;;6245870;23;20036;-86
2022/07/07 10:28:56;;;;;;;5.13;2.90;;;768.80;1664.00;;;;;;6245732;23;20012;-88
2022/07/07 10:31:24;;;;;;;5.88;4.47;;;793.80;1664.00;;;;;;6245450;23;20008;-84
2022/07/07 10:34:14;;;;;;;8.15;2.72;;;794.10;1689.60;;;;;;6245638;23;20000;-85
2022/07/07 10:37:01;;;;;;;4.88;2.42;;;819.20;1612.80;;;;;;6245222;23;20000;-85
2022/07/07 10:39:33;;;;;;;4.55;2.00;;;819.20;1638.40;;;;;;6245058;23;20036;-88
2022/07/07 10:42:04;;;;;;;4.93;3.47;;;794.00;1689.60;;;;;;6245846;23;20011;-86
2022/07/07 10:44:32;;;;;;;6.05;4.65;;;793.70;1766.40;;;;;;6245301;23;20046;-86
2022/07/07 10:47:24;;;;;;;5.60;2.63;;;793.60;1766.40;;;;;;6245571;23;20043;-86
2022/07/07 10:49:57;;;;;;;3.30;2.15;;;768.80;1766.40;;;;;;6245091;23;20008;-84
2022/07/07 10:52:28;;;;;;;3.90;2.95;;;768.60;1792.00;;;;;;6244828;23;20330;-84
2022/07/07 10:55:01;;;;;;;5.32;3.00;;;768.40;1792.00;;;;;;6245134;23;20004;-85
2022/07/07 10:57:38;;;;;;;5.82;3.85;;;743.10;1817.60;;;;;;6245343;23;19996;-84
2022/07/07 11:00:13;;;;;;;6.85;3.08;;;743.00;1843.20;;;;;;6244406;23;20083;-82
2022/07/07 11:02:49;;;;;;;4.75;2.15;;;743.00;1843.20;;;;;;6220453;23;20016;-86
2022/07/07 11:05:15;;;;;;;4.97;2.60;;;742.90;1843.20;;;;;;6245234;23;20000;-85
2022/07/07 11:08:06;;;;;;;6.50;2.63;;;742.90;1868.80;;;;;;6245206;23;20004;-86
2022/07/07 11:10:48;;;;;;;6.45;3.13;;;742.80;1894.40;;;;;;6224582;23;20020;-86
2022/07/07 11:13:16;;;;;;;4.75;2.75;;;742.60;1894.40;;;;;;6245139;23;20004;-83
2022/07/07 11:15:46;;;;;;;8.48;3.85;;;742.60;1920.00;;;;;;6245064;23;20000;-83
2022/07/07 11:18:15;;;;;;;8.93;6.20;;;742.60;1920.00;;;;;;6245055;23;20086;-85
2022/07/07 11:20:56;;;;;;;7.53;5.10;;;742.70;1920.00;;;;;;6244896;23;20011;-83
2022/07/07 11:23:24;;;;;;;5.80;3.38;;;743.30;1868.80;;;;;;6244852;23;20000;-83
2022/07/07 11:25:55;;;;;;;7.32;2.63;;;768.30;1792.00;;;;;;6244927;23;19996;-85
2022/07/07 11:28:23;;;;;;;7.03;2.72;;;768.80;1817.60;;;;;;6244806;23;20012;-84
2022/07/07 11:30:49;;;;;;;4.75;2.67;;;768.50;1792.00;;;;;;6245000;23;20066;-87
2022/07/07 11:33:15;;;;;;;5.75;4.72;;;768.30;1792.00;;;;;;6245048;23;20354;-84
2022/07/07 11:35:42;;;;;;;4.57;3.30;;;743.20;1792.00;;;;;;6244820;23;20007;-84
2022/07/07 11:38:11;;;;;;;4.97;2.13;;;743.10;1792.00;;;;;;6244946;23;20334;-85
2022/07/07 11:40:42;;;;;;;4.72;2.03;;;743.00;1792.00;;;;;;6244808;23;20004;-83
2022/07/07 11:43:21;;;;;;;4.20;2.67;;;742.90;1817.60;;;;;;6244994;23;20000;-85
2022/07/07 11:45:46;;;;;;;5.68;2.38;;;742.70;1843.20;;;;;;6245042;23;20008;-84
2022/07/07 11:48:13;;;;;;;7.15;2.67;;;742.60;1817.60;;;;;;6244492;23;20013;-84
2022/07/07 11:50:40;;;;;;;8.80;2.38;;;742.50;1843.20;;;;;;6244780;23;20000;-83
2022/07/07 11:53:06;;;;;;;6.03;2.40;;;742.40;1868.80;;;;;;6244983;23;20001;-81
2022/07/07 11:55:33;;;;;;;10.02;2.53;;;742.50;1843.20;;;;;;6244463;23;20457;-79
2022/07/07 11:58:03;;;;;;;6.43;4.10;;;742.50;1843.20;;;;;;6244804;23;20191;-82
2022/07/07 12:00:40;;;;;;;4.32;3.75;;;742.70;1868.80;;;;;;6245052;23;20008;-81
2022/07/07 12:03:07;;;;;;;5.40;2.67;;;768.10;1792.00;;;;;;6244474;23;20082;-84
2022/07/07 12:05:46;;;;;;;4.43;1.90;;;768.50;1792.00;;;;;;6245001;23;20004;-84
2022/07/07 12:08:14;;;;;;;3.72;2.28;;;768.90;1792.00;;;;;;6244861;23;20482;-82
2022/07/07 12:10:52;;;;;;;6.22;2.10;;;794.20;1766.40;;;;;;6243964;23;20077;-82
2022/07/07 12:13:18;;;;;;;6.70;2.30;;;793.60;1740.80;;;;;;6244631;23;20007;-82
2022/07/07 12:15:48;;;;;;;4.22;2.53;;;768.70;1766.40;;;;;;6244336;23;20032;-85
2022/07/07 12:18:24;;;;;;;5.70;2.40;;;768.40;1766.40;;;;;;6244850;23;20008;-83
2022/07/07 12:21:07;;;;;;;5.20;2.47;;;768.00;1792.00;;;;;;6244812;23;20012;-83
2022/07/07 12:23:39;;;;;;;3.17;2.08;;;743.30;1817.60;;;;;;6244414;23;20031;-83
2022/07/07 12:26:14;;;;;;;5.72;2.22;;;768.70;1766.40;;;;;;6244857;23;20007;-83
2022/07/07 12:28:41;;;;;;;4.75;2.20;;;793.60;1792.00;;;;;;6244441;23;20043;-84
2022/07/07 12:31:08;;;;;;;4.45;2.20;;;794.10;1766.40;;;;;;6244332;23;20000;-83
2022/07/07 12:33:39;;;;;;;4.43;2.90;;;794.00;1766.40;;;;;;6244514;23;20007;-83
2022/07/07 12:36:26;;;;;;;4.78;2.42;;;768.90;1766.40;;;;;;6244704;23;20004;-84
2022/07/07 12:38:55;;;;;;;4.68;2.13;;;768.60;1766.40;;;;;;6244431;23;20008;-84
2022/07/07 12:41:24;;;;;;;4.47;2.40;;;768.80;1766.40;;;;;;6244772;23;20004;-83
2022/07/07 12:43:52;;;;;;;3.85;2.20;;;794.00;1766.40;;;;;;6244064;23;20027;-86